Fragaria, Washington
Current Conditions -  °F | °C
As of 5:35 PM on Thursday 27 Nov 2014 (Local Time) from KPWT Reporting Station
Overcast Overcast  
Wind Chill: 11°   Ceiling: 500
Heat Index: 11°   Visibility: 10mi
Dew Point: 11°   Wind: 18mph
Humidity: 100%   Direction: 180°S
Pressure: 29.77"   Gusts: 25mph
Location:  47.4285°N, 122.573°W
Report Text: KPWT 280135Z AUTO 18016G22KT 10SM BKN005 BKN012 OVC025 11/11 A2977 RMK AO1 P0009
Loading
Personal Weather Stations






























Interactive Weather Map New forecast layout! Learn more

10-Day Weather Forecast

Advertisements
Track Severe Weather on mobile